Terminal Aerodrome Forecast
Issued by NWS Spokane, WA

Home | Current Version | Previous Version | Text Only | Print | Product List | Glossary On
Versions: 1 2 3 4 5 6 7 8 9 10 11 12 13 14 15 16 17 18 19
000
FTUS46 KOTX 301618 AAB
TAFEAT
TAF AMD
KEAT 301618Z 3016/3112 VRB04KT 6SM -RA SCT004 OVC018
     FM301800 VRB03KT P6SM -RA SCT004 BKN012 OVC026
     FM310000 28006KT P6SM VCSH SCT012 OVC028
     FM310400 VRB03KT 6SM -RA BKN008 OVC015=

USA.gov is the U.S. government's official web portal to all federal, state and local government web resources and services.